TNCB/BON METAR and TAF weather

Enter ICAO airport designator
Station Type Date Time Source
TNCB METAR 2020/10/29 16:55 UTC NOAA

TNCB 291655Z 11012KT 070V160 9999 FEW018 SCT022 31/24 Q1009


Station Type Date Time Source
TNCB Decoded METAR 2020/10/29 16:55 UTC NOAA

Flamingo Airport, Bonaire, Netherlands Antilles (TNCB) 12-09N 068-17W 7M
Oct 29, 2020 - 12:55 PM EDT / 2020.10.29 1655 UTC
Wind: from the ESE (110 degrees) at 14 MPH (12 KT) (direction variable):0
Visibility: greater than 7 mile(s):0
Sky conditions: partly cloudy
Temperature: 87 F (31 C)
Heat index: 95.7 F (35.4 C):1
Dew Point: 75 F (24 C)
Relative Humidity: 66%
Pressure (altimeter): 29.80 in. Hg (1009 hPa)
ob: TNCB 291655Z 11012KT 070V160 9999 FEW018 SCT022 31/24 Q1009
cycle: 17

Station Type Date Time Source
TNCB TAF 2020/10/29 18:27 UTC NOAA

TAF TAF TNCB 291716Z 2918/3024 10012KT 9999 SCT020
TEMPO 2918/3012 6000 SHRA FEW018CB PROB30
TEMPO 3001/3003 VRB15G25KT 3000 TSRA BKN015CB
BECMG 3012/3015 19007KT PROB30
TEMPO 3020/3024 18015G25KT 3000 TSRA BKN015CB

Example: see airport list